Time;durP1;ratioP1;P1;durP2;ratioP2;P2;SDS_P1;SDS_P2;PMS_P1;PMS_P2;Temp;Humidity;BMP_temperature;BMP_pressure;BME280_temperature;BME280_humidity;BME280_pressure;Samples;Min_cycle;Max_cycle;Signal;HPM_P1;HPM_P2
2023/01/31 00:00:45;;;;;;;14.67;3.63;;;;;;;5.33;68.19;99650.47;4989072;28;96899;-79
2023/01/31 00:03:10;;;;;;;16.43;3.37;;;;;;;5.35;67.78;99641.72;4978172;28;101864;-83
2023/01/31 00:05:36;;;;;;;15.63;3.57;;;;;;;5.22;67.55;99622.09;4957955;28;101487;-79
2023/01/31 00:08:01;;;;;;;15.63;2.77;;;;;;;5.30;67.33;99633.16;4983858;28;96873;-79
2023/01/31 00:10:27;;;;;;;15.43;3.60;;;;;;;5.30;67.32;99630.56;4992960;28;96840;-81
2023/01/31 00:12:52;;;;;;;12.93;3.10;;;;;;;5.39;67.38;99638.16;4996119;28;97883;-80
2023/01/31 00:15:18;;;;;;;19.43;3.70;;;;;;;5.40;67.26;99642.47;4985439;28;97354;-79
2023/01/31 00:17:44;;;;;;;10.33;2.60;;;;;;;5.42;66.91;99652.84;4968822;28;97104;-80
2023/01/31 00:20:10;;;;;;;17.37;3.37;;;;;;;5.28;67.18;99627.13;4960702;28;97303;-83
2023/01/31 00:22:36;;;;;;;18.97;3.40;;;;;;;5.40;66.87;99645.06;4964842;28;101445;-80
2023/01/31 00:25:02;;;;;;;17.67;4.10;;;;;;;5.35;67.17;99633.94;4975425;28;101331;-78
2023/01/31 00:27:28;;;;;;;14.60;2.93;;;;;;;5.42;66.95;99658.06;4965860;28;96884;-79
2023/01/31 00:29:53;;;;;;;10.33;2.63;;;;;;;5.39;67.29;99655.53;4993511;28;96865;-79
2023/01/31 00:32:19;;;;;;;14.77;3.40;;;;;;;5.38;66.92;99656.41;4986900;28;100949;-78
2023/01/31 00:34:44;;;;;;;13.70;3.00;;;;;;;5.40;67.21;99667.63;4977119;28;101097;-78
2023/01/31 00:37:11;;;;;;;10.70;2.90;;;;;;;5.41;66.98;99665.00;4982763;28;96891;-83
2023/01/31 00:39:36;;;;;;;15.07;3.07;;;;;;;5.43;66.89;99672.78;4986196;28;96799;-79
2023/01/31 00:42:02;;;;;;;16.53;3.13;;;;;;;5.30;66.78;99660.94;4978528;28;101796;-78
2023/01/31 00:44:28;;;;;;;16.37;3.43;;;;;;;5.36;66.39;99677.28;4987284;28;101728;-78
2023/01/31 00:46:56;;;;;;;14.10;2.80;;;;;;;5.29;66.68;99656.63;4985245;28;97197;-78
2023/01/31 00:49:21;;;;;;;11.67;3.07;;;;;;;5.35;66.57;99679.91;4975570;28;96908;-78
2023/01/31 00:51:47;;;;;;;13.33;2.60;;;;;;;5.36;66.39;99679.03;4968043;28;101473;-79
2023/01/31 00:54:12;;;;;;;15.33;2.83;;;;;;;5.32;66.53;99680.81;4975924;28;101209;-84
2023/01/31 00:56:38;;;;;;;13.83;3.00;;;;;;;5.37;66.23;99694.59;4993247;28;96851;-79
2023/01/31 00:59:07;;;;;;;15.63;3.23;;;;;;;5.24;65.81;99672.34;5009230;28;97119;-79
2023/01/31 01:01:34;;;;;;;11.67;3.23;;;;;;;5.29;66.00;99686.09;4975182;28;101889;-79
2023/01/31 01:04:00;;;;;;;14.43;2.60;;;;;;;5.39;65.75;99703.22;5004242;28;97410;-78
2023/01/31 01:06:31;;;;;;;20.30;4.40;;;;;;;5.19;65.56;99682.84;4975111;28;97711;-79
2023/01/31 01:08:58;;;;;;;13.60;2.77;;;;;;;5.33;64.89;99708.56;4963572;28;96784;-78
2023/01/31 01:11:26;;;;;;;16.87;3.73;;;;;;;5.28;64.61;99707.81;4976248;28;101591;-79
2023/01/31 01:13:52;;;;;;;13.87;3.90;;;;;;;5.13;64.50;99680.38;4979861;28;100172;-78
2023/01/31 01:16:39;;;;;;;13.07;2.97;;;;;;;5.32;64.62;99706.84;4982817;28;97031;-78
2023/01/31 01:19:14;;;;;;;14.17;3.00;;;;;;;5.36;64.74;99728.47;4966402;28;97237;-78
2023/01/31 01:21:39;;;;;;;14.80;3.50;;;;;;;5.32;64.41;99700.78;4980825;28;101406;-78
2023/01/31 01:24:10;;;;;;;10.20;2.63;;;;;;;5.38;63.73;99718.88;4980276;28;101644;-78
2023/01/31 01:26:37;;;;;;;13.43;2.78;;;;;;;5.37;63.92;99731.03;4991610;28;96723;-81
2023/01/31 01:29:03;;;;;;;12.97;2.47;;;;;;;5.38;63.86;99742.28;4969614;28;97367;-79
2023/01/31 01:31:29;;;;;;;13.63;2.70;;;;;;;5.25;63.46;99720.03;4988972;28;101220;-78
2023/01/31 01:33:57;;;;;;;9.73;2.27;;;;;;;5.38;63.39;99740.56;4991703;28;100893;-78
2023/01/31 01:36:24;;;;;;;14.67;2.57;;;;;;;5.44;63.46;99739.59;4986409;28;96912;-78
2023/01/31 01:38:50;;;;;;;12.03;2.60;;;;;;;5.42;63.48;99730.94;4973048;28;97057;-78
2023/01/31 01:41:16;;;;;;;8.97;2.50;;;;;;;5.31;63.16;99705.16;4968692;28;101624;-85
2023/01/31 01:43:49;;;;;;;15.57;3.47;;;;;;;5.44;62.89;99722.22;5001883;28;97498;-78
2023/01/31 01:46:37;;;;;;;10.13;2.90;;;;;;;5.39;63.43;99742.28;4976694;28;96758;-83
2023/01/31 01:49:15;;;;;;;11.33;2.83;;;;;;;5.38;63.41;99745.78;4975271;28;97405;-78
2023/01/31 01:51:41;;;;;;;14.30;3.10;;;;;;;5.41;63.60;99756.13;4992930;28;99138;-78
2023/01/31 01:54:14;;;;;;;12.17;2.87;;;;;;;5.35;63.55;99750.16;4990513;28;101521;-78
2023/01/31 01:56:42;;;;;;;7.83;2.23;;;;;;;5.33;63.13;99752.81;4974628;28;96799;-78
2023/01/31 01:59:18;;;;;;;12.90;2.40;;;;;;;5.43;63.48;99777.75;4987590;28;98226;-79
2023/01/31 02:01:45;;;;;;;11.13;3.00;;;;;;;5.39;63.46;99762.25;4967000;28;101676;-79
2023/01/31 02:04:14;;;;;;;12.00;2.77;;;;;;;5.43;63.24;99782.94;4980465;28;101425;-78
2023/01/31 02:06:42;;;;;;;14.87;2.93;;;;;;;5.44;63.73;99784.69;4987211;28;96764;-78
2023/01/31 02:09:15;;;;;;;15.20;3.57;;;;;;;5.39;63.27;99770.91;4981371;28;96906;-79
2023/01/31 02:11:41;;;;;;;10.20;2.67;;;;;;;5.31;63.22;99754.59;4983966;28;100533;-80
2023/01/31 02:14:08;;;;;;;19.57;3.37;;;;;;;5.31;62.87;99770.22;4988398;28;98279;-78
2023/01/31 02:16:34;;;;;;;12.67;2.60;;;;;;;5.39;63.62;99777.88;4963418;28;96740;-81
2023/01/31 02:19:01;;;;;;;11.50;2.30;;;;;;;5.40;63.38;99800.38;4975383;28;97230;-78
2023/01/31 02:21:51;;;;;;;11.30;2.23;;;;;;;5.43;63.49;99797.72;4974244;28;97607;-78
2023/01/31 02:24:54;;;;;;;16.93;3.20;;;;;;;5.45;63.30;99793.34;4985867;28;101789;-84
2023/01/31 02:27:38;;;;;;;11.83;2.43;;;;;;;5.44;62.97;99797.69;4988220;28;96967;-79
2023/01/31 02:30:30;;;;;;;12.50;2.50;;;;;;;5.41;63.33;99792.56;4990125;28;97133;-79
2023/01/31 02:32:58;;;;;;;15.52;2.83;;;;;;;5.40;63.49;99798.63;4988319;28;98491;-78
2023/01/31 02:35:31;;;;;;;10.23;2.77;;;;;;;5.39;63.17;99812.56;4980897;28;101036;-78
2023/01/31 02:38:04;;;;;;;11.97;2.70;;;;;;;5.34;62.96;99803.13;4973979;28;96697;-78
2023/01/31 02:40:43;;;;;;;10.50;3.00;;;;;;;5.35;63.17;99804.81;4961013;28;97303;-78
2023/01/31 02:43:27;;;;;;;12.87;2.67;;;;;;;5.29;62.78;99797.16;4989828;28;101515;-78
2023/01/31 02:46:10;;;;;;;18.80;4.07;;;;;;;5.25;62.31;99819.78;4967666;28;100791;-79
2023/01/31 02:49:33;;;;;;;13.67;2.37;;;;;;;5.20;62.83;99835.47;4956953;28;97054;-78
2023/01/31 02:52:21;;;;;;;13.67;2.40;;;;;;;5.28;62.68;99844.91;4974497;28;96869;-78
2023/01/31 02:57:50;;;;;;;12.23;2.37;;;;;;;5.32;62.79;99857.78;4976533;28;101128;-78
2023/01/31 03:00:16;;;;;;;7.50;2.10;;;;;;;5.33;62.82;99866.50;4967884;28;97037;-84
2023/01/31 03:02:42;;;;;;;12.97;3.47;;;;;;;5.32;62.46;99869.97;4988662;28;96898;-81
2023/01/31 03:05:13;;;;;;;10.10;2.30;;;;;;;5.27;62.27;99856.22;4947307;28;101546;-78
2023/01/31 03:07:41;;;;;;;12.07;2.60;;;;;;;5.36;61.84;99879.44;4970092;28;101620;-80
2023/01/31 03:10:26;;;;;;;11.03;2.83;;;;;;;5.25;61.98;99865.78;4974446;28;96979;-78
2023/01/31 03:13:21;;;;;;;8.80;3.30;;;;;;;5.36;61.64;99884.66;4988244;28;97225;-79
2023/01/31 03:19:20;;;;;;;13.38;2.75;;;;;;;5.35;61.46;99891.59;4939319;28;101273;-78
2023/01/31 03:21:52;;;;;;;10.77;2.30;;;;;;;5.35;61.00;99889.00;4967955;28;96813;-78
2023/01/31 03:24:17;;;;;;;;;;;;;;;5.33;61.15;99901.19;4951803;28;97226;-81
2023/01/31 03:26:43;;;;;;;10.53;2.20;;;;;;;5.34;61.14;99895.06;4989941;28;102138;-78
2023/01/31 03:29:12;;;;;;;16.27;3.47;;;;;;;5.35;60.49;99902.00;4972097;28;101157;-79
2023/01/31 03:31:43;;;;;;;8.37;1.67;;;;;;;5.38;60.58;99901.06;4956290;28;98111;-78
2023/01/31 03:34:10;;;;;;;10.73;2.20;;;;;;;5.29;60.04;99896.06;4973248;28;97136;-78
2023/01/31 03:36:36;;;;;;;7.83;2.10;;;;;;;5.36;59.89;99900.25;4955100;28;101557;-79
2023/01/31 03:39:28;;;;;;;11.67;2.40;;;;;;;5.39;59.82;99911.47;4982545;28;97454;-83
2023/01/31 03:42:08;;;;;;;10.73;1.97;;;;;;;5.33;59.29;99905.53;4973709;28;97465;-78
2023/01/31 03:44:57;;;;;;;8.03;2.53;;;;;;;5.37;59.27;99928.00;4958854;28;97472;-79
2023/01/31 03:47:30;;;;;;;15.30;2.70;;;;;;;5.33;58.76;99924.59;4981147;28;101937;-78
2023/01/31 03:49:58;;;;;;;13.07;2.27;;;;;;;5.32;59.29;99932.44;4978921;28;97968;-78
2023/01/31 03:52:40;;;;;;;10.23;2.70;;;;;;;5.37;59.18;99941.00;4973052;28;96812;-81
2023/01/31 03:55:18;;;;;;;9.18;2.22;;;;;;;5.35;58.47;99940.19;4995898;28;97251;-79
2023/01/31 03:57:48;;;;;;;6.50;1.87;;;;;;;5.28;58.69;99929.03;4966924;28;101615;-79
2023/01/31 04:00:15;;;;;;;15.77;2.63;;;;;;;5.36;58.52;99940.16;4973328;28;101180;-78
2023/01/31 04:02:47;;;;;;;14.73;2.90;;;;;;;5.38;58.74;99938.41;4969895;28;98092;-79
2023/01/31 04:05:21;;;;;;;12.33;2.30;;;;;;;5.30;58.56;99931.63;5004051;28;97218;-78
2023/01/31 04:07:51;;;;;;;11.50;2.73;;;;;;;5.35;58.49;99942.78;4981548;28;98486;-78
2023/01/31 04:10:22;;;;;;;10.43;2.10;;;;;;;5.36;58.53;99939.31;4961916;28;102099;-79
2023/01/31 04:12:47;;;;;;;11.20;2.10;;;;;;;5.38;58.42;99961.81;4984481;28;96680;-79
2023/01/31 04:15:13;;;;;;;10.90;2.50;;;;;;;5.37;58.52;99954.88;4971233;28;97221;-78
2023/01/31 04:17:39;;;;;;;12.03;2.13;;;;;;;5.39;57.88;99960.94;4948168;28;101077;-83
2023/01/31 04:20:05;;;;;;;13.03;2.00;;;;;;;5.36;58.14;99960.97;4975770;28;101138;-78
2023/01/31 04:22:31;;;;;;;14.20;2.50;;;;;;;5.35;58.19;99958.41;4971492;28;97290;-78
2023/01/31 04:24:57;;;;;;;15.83;3.90;;;;;;;5.37;58.42;99964.44;4969241;28;96812;-78
2023/01/31 04:27:22;;;;;;;17.33;3.27;;;;;;;5.35;58.75;99963.59;4984039;28;97681;-79
2023/01/31 04:29:48;;;;;;;12.07;2.53;;;;;;;5.37;59.03;99969.66;4972663;28;101024;-78
2023/01/31 04:32:13;;;;;;;13.17;2.70;;;;;;;5.37;59.09;99972.25;4981809;28;97246;-78
2023/01/31 04:34:39;;;;;;;12.07;2.93;;;;;;;5.28;59.10;99959.41;4968498;28;97269;-82
2023/01/31 04:37:04;;;;;;;10.30;2.50;;;;;;;5.33;59.49;99974.06;4964562;28;101581;-80
2023/01/31 04:39:30;;;;;;;9.07;2.27;;;;;;;5.29;59.38;99974.13;4953714;28;101484;-78
2023/01/31 04:41:56;;;;;;;16.03;2.90;;;;;;;5.33;59.36;99991.44;4972053;28;97302;-80
2023/01/31 04:44:21;;;;;;;18.00;2.87;;;;;;;5.35;59.29;99987.03;4971513;28;97361;-85
2023/01/31 04:46:47;;;;;;;11.50;2.70;;;;;;;5.31;59.99;99996.66;4987935;28;101295;-79
2023/01/31 04:49:13;;;;;;;13.00;2.83;;;;;;;5.30;59.84;99994.94;4955880;28;101539;-78
2023/01/31 04:51:39;;;;;;;11.33;2.77;;;;;;;5.36;59.77;99999.19;4955546;28;96772;-78
2023/01/31 04:54:05;;;;;;;15.00;2.30;;;;;;;5.34;59.96;100001.78;4955426;28;96846;-81
2023/01/31 04:56:33;;;;;;;12.80;2.67;;;;;;;5.27;59.56;99986.34;4990288;28;97297;-78
2023/01/31 04:58:59;;;;;;;14.47;2.63;;;;;;;5.21;59.99;99985.53;4974289;28;102330;-78
2023/01/31 05:01:25;;;;;;;13.97;3.53;;;;;;;5.34;59.80;100000.94;4958555;28;96869;-79
2023/01/31 05:03:51;;;;;;;10.77;2.83;;;;;;;5.32;60.13;100008.75;4974798;28;97029;-78
2023/01/31 05:06:17;;;;;;;9.60;2.53;;;;;;;5.29;60.22;100005.38;4971751;28;101347;-79
2023/01/31 05:08:42;;;;;;;10.03;2.10;;;;;;;5.13;60.48;99979.63;4985169;28;97328;-79
2023/01/31 05:11:08;;;;;;;11.30;2.63;;;;;;;5.26;60.31;100002.81;4970873;28;97014;-78
2023/01/31 05:13:37;;;;;;;12.10;2.37;;;;;;;5.30;60.51;100010.56;4988886;28;97202;-78
2023/01/31 05:16:09;;;;;;;11.23;2.67;;;;;;;5.24;60.39;100015.88;4991783;28;98178;-79
2023/01/31 05:18:35;;;;;;;11.18;2.80;;;;;;;5.24;60.17;100005.47;4959152;28;102263;-81
2023/01/31 05:21:02;;;;;;;15.20;2.83;;;;;;;5.22;60.17;100015.88;4971744;28;97345;-78
2023/01/31 05:23:28;;;;;;;15.00;2.63;;;;;;;5.21;60.14;100014.19;4963989;28;97001;-77
2023/01/31 05:25:54;;;;;;;12.43;2.60;;;;;;;5.22;60.64;100021.09;4976108;28;99065;-81
2023/01/31 05:28:19;;;;;;;8.97;2.67;;;;;;;5.20;60.34;100024.59;4977888;28;101545;-80
2023/01/31 05:30:45;;;;;;;10.47;3.23;;;;;;;5.20;60.55;100032.41;4980592;28;96747;-80
2023/01/31 05:33:10;;;;;;;11.10;2.37;;;;;;;5.22;60.15;100035.84;4979597;28;97452;-78
2023/01/31 05:35:37;;;;;;;10.33;2.20;;;;;;;5.23;60.37;100032.34;4974513;28;101112;-78
2023/01/31 05:38:03;;;;;;;11.73;2.90;;;;;;;5.24;60.21;100043.66;4954908;28;99953;-79
2023/01/31 05:40:29;;;;;;;16.03;2.87;;;;;;;5.16;60.33;100041.16;4969017;28;97190;-78
2023/01/31 05:42:59;;;;;;;17.70;3.33;;;;;;;5.21;60.14;100058.41;4974306;28;96846;-80
2023/01/31 05:45:26;;;;;;;14.17;2.90;;;;;;;5.18;60.16;100048.06;4963953;28;100967;-81
2023/01/31 05:47:52;;;;;;;10.17;2.27;;;;;;;5.12;60.27;100042.06;4995904;28;98089;-78
2023/01/31 05:50:18;;;;;;;8.70;2.63;;;;;;;5.13;60.42;100057.69;4981060;28;97079;-78
2023/01/31 05:52:49;;;;;;;10.83;2.47;;;;;;;5.17;60.03;100079.28;4982359;28;97082;-78
2023/01/31 05:55:15;;;;;;;12.20;2.65;;;;;;;5.13;60.03;100065.47;4987793;28;97488;-77
2023/01/31 05:57:40;;;;;;;10.77;2.37;;;;;;;5.20;59.83;100076.63;4970136;28;100633;-80
2023/01/31 06:00:06;;;;;;;12.97;2.27;;;;;;;5.18;60.48;100076.69;4962105;28;97165;-78
2023/01/31 06:02:37;;;;;;;12.10;2.78;;;;;;;5.22;59.97;100082.69;4986898;28;97559;-78
2023/01/31 06:05:03;;;;;;;7.57;2.53;;;;;;;5.20;60.35;100089.66;4989623;28;101182;-77
2023/01/31 06:07:28;;;;;;;10.97;3.07;;;;;;;5.22;59.93;100103.50;4983544;28;97660;-77
2023/01/31 06:09:54;;;;;;;7.67;2.20;;;;;;;5.22;59.61;100087.91;4966250;28;97307;-78
2023/01/31 06:12:19;;;;;;;10.07;2.20;;;;;;;5.21;60.10;100100.06;4979932;28;97351;-78
2023/01/31 06:14:45;;;;;;;13.23;2.23;;;;;;;5.20;59.72;100108.72;4981142;28;98093;-78
2023/01/31 06:17:11;;;;;;;12.73;2.20;;;;;;;5.20;59.95;100107.88;4971612;28;105716;-79
2023/01/31 06:19:37;;;;;;;10.13;2.53;;;;;;;5.20;59.25;100126.09;4958762;28;96925;-78
2023/01/31 06:22:04;;;;;;;11.13;2.30;;;;;;;5.11;59.33;100105.41;4990901;28;97014;-77
2023/01/31 06:24:29;;;;;;;10.83;2.40;;;;;;;5.08;59.39;100108.91;5005274;28;97375;-80
2023/01/31 06:26:55;;;;;;;11.70;2.37;;;;;;;5.18;59.10;100125.28;5006106;28;101287;-81
2023/01/31 06:29:20;;;;;;;11.43;2.33;;;;;;;5.20;59.47;100128.69;5009770;28;97044;-81
2023/01/31 06:31:46;;;;;;;14.23;2.60;;;;;;;5.24;59.28;100134.72;4980680;28;98910;-80
2023/01/31 06:34:11;;;;;;;9.33;2.27;;;;;;;5.19;59.63;100125.22;5002090;28;100859;-79
2023/01/31 06:36:37;;;;;;;8.60;2.10;;;;;;;5.24;59.27;100140.78;5022990;28;97039;-75
2023/01/31 06:39:03;;;;;;;10.30;2.60;;;;;;;5.20;59.03;100126.09;4990061;28;97206;-83
2023/01/31 06:41:29;;;;;;;10.57;2.60;;;;;;;5.21;59.50;100127.81;4965935;28;96947;-79
2023/01/31 06:43:55;;;;;;;10.87;2.27;;;;;;;5.06;59.35;100110.72;5009002;28;101250;-78
2023/01/31 06:46:21;;;;;;;11.30;2.73;;;;;;;5.18;59.67;100130.47;4988278;28;100706;-78
2023/01/31 06:48:49;;;;;;;12.27;2.40;;;;;;;5.24;59.71;100139.94;5004239;28;97891;-79
2023/01/31 06:51:15;;;;;;;11.87;3.00;;;;;;;5.20;59.97;100133.91;4993769;28;97119;-78
2023/01/31 06:53:41;;;;;;;14.20;2.80;;;;;;;5.08;60.19;100116.72;5014833;28;98421;-78
2023/01/31 06:56:07;;;;;;;12.67;2.63;;;;;;;5.12;60.05;100125.34;4982722;28;97337;-77
2023/01/31 06:58:32;;;;;;;7.10;2.60;;;;;;;5.12;60.28;100125.34;4984715;28;98386;-76
2023/01/31 07:01:09;;;;;;;14.47;2.83;;;;;;;5.14;60.22;100128.78;4980386;28;96807;-77
2023/01/31 07:03:35;;;;;;;9.63;2.60;;;;;;;5.26;60.20;100154.63;4997854;28;98251;-77
2023/01/31 07:06:01;;;;;;;12.40;2.53;;;;;;;5.18;60.25;100138.28;4991632;28;101466;-77
2023/01/31 07:08:26;;;;;;;11.93;3.10;;;;;;;5.23;60.13;100149.47;4993377;28;96876;-78
2023/01/31 07:10:52;;;;;;;11.27;2.50;;;;;;;5.22;60.18;100148.59;5001129;28;96942;-77
2023/01/31 07:13:18;;;;;;;10.13;2.57;;;;;;;5.31;60.11;100157.16;5009843;28;101061;-77
2023/01/31 07:15:44;;;;;;;12.20;2.40;;;;;;;5.16;60.11;100130.47;5009703;28;101198;-77
2023/01/31 07:18:11;;;;;;;9.80;3.13;;;;;;;5.27;60.31;100152.91;4988692;28;97180;-77
2023/01/31 07:20:41;;;;;;;12.70;2.77;;;;;;;5.29;60.05;100162.38;4977260;28;97586;-77
2023/01/31 07:23:07;;;;;;;12.67;2.63;;;;;;;5.30;60.17;100160.66;4971552;28;101682;-76
2023/01/31 07:25:34;;;;;;;12.43;3.33;;;;;;;5.31;60.57;100170.19;5005862;28;100749;-76
2023/01/31 07:28:00;;;;;;;10.33;2.97;;;;;;;5.19;60.16;100153.00;5004704;28;97374;-76
2023/01/31 07:30:26;;;;;;;11.47;2.73;;;;;;;5.31;60.34;100181.44;5008639;28;97924;-78
2023/01/31 07:32:52;;;;;;;11.50;3.63;;;;;;;5.24;60.28;100179.84;5008805;28;101790;-76
2023/01/31 07:35:18;;;;;;;16.77;3.83;;;;;;;5.25;60.34;100183.28;4976743;28;97669;-77
2023/01/31 07:37:44;;;;;;;15.50;3.47;;;;;;;5.31;60.30;100202.28;5002426;28;96973;-77
2023/01/31 07:40:11;;;;;;;11.27;3.13;;;;;;;5.24;60.29;100189.38;5003672;28;97095;-80
2023/01/31 07:42:37;;;;;;;14.43;2.83;;;;;;;5.28;60.20;100197.09;4982578;28;101865;-78
2023/01/31 07:45:03;;;;;;;11.20;2.80;;;;;;;5.38;59.86;100209.13;4986936;28;100003;-79
2023/01/31 07:47:29;;;;;;;8.47;2.57;;;;;;;5.48;60.28;100224.59;5000523;28;97479;-74
2023/01/31 07:49:54;;;;;;;10.10;2.63;;;;;;;5.57;60.20;100216.66;4990634;28;97215;-75
2023/01/31 07:52:20;;;;;;;9.90;2.97;;;;;;;5.56;59.78;100207.13;5006514;28;97575;-75
2023/01/31 07:54:45;;;;;;;11.70;3.67;;;;;;;5.58;59.94;100208.81;4977551;28;99379;-76
2023/01/31 07:57:12;;;;;;;13.40;3.90;;;;;;;5.63;60.00;100214.81;4985924;28;97254;-75
2023/01/31 07:59:37;;;;;;;10.93;2.80;;;;;;;5.64;60.04;100208.72;4958044;28;97074;-76
2023/01/31 08:04:47;;;;;;;13.00;3.67;;;;;;;5.64;59.54;100226.06;4974796;28;100698;-76
2023/01/31 08:07:13;;;;;;;10.63;2.90;;;;;;;5.72;59.90;100229.44;4972542;28;96929;-76
2023/01/31 08:09:38;;;;;;;13.97;2.60;;;;;;;5.73;59.51;100217.25;4977336;28;97373;-76
2023/01/31 08:12:05;;;;;;;14.07;3.20;;;;;;;5.74;59.92;100219.00;4956777;28;101438;-80
2023/01/31 08:14:31;;;;;;;9.97;2.47;;;;;;;5.63;59.55;100198.31;5005002;28;101621;-76
2023/01/31 08:16:57;;;;;;;10.87;3.20;;;;;;;5.74;59.66;100227.66;4985113;28;97201;-79
2023/01/31 08:19:23;;;;;;;9.50;3.20;;;;;;;5.72;59.63;100226.81;4956931;28;97055;-77
2023/01/31 08:21:48;;;;;;;10.80;2.77;;;;;;;5.60;59.65;100216.59;4973888;28;97496;-78
2023/01/31 08:24:14;;;;;;;12.13;3.77;;;;;;;5.68;59.71;100228.63;4989082;28;100966;-77
2023/01/31 08:26:41;;;;;;;17.07;2.87;;;;;;;5.69;60.15;100237.28;4987946;28;97426;-76
2023/01/31 08:29:07;;;;;;;15.10;3.77;;;;;;;5.73;59.58;100236.38;5006993;27;102450;-77
2023/01/31 08:31:32;;;;;;;12.87;3.17;;;;;;;5.79;60.02;100238.00;5008208;28;97919;-77
2023/01/31 08:33:58;;;;;;;9.30;2.90;;;;;;;5.80;60.06;100237.13;4983686;28;101119;-77
2023/01/31 08:36:26;;;;;;;10.00;2.80;;;;;;;5.78;60.00;100236.28;5009150;28;97321;-76
2023/01/31 08:38:52;;;;;;;13.37;2.70;;;;;;;5.79;60.13;100236.28;4997137;28;97341;-77
2023/01/31 08:41:19;;;;;;;8.87;2.80;;;;;;;5.79;60.20;100231.06;4981285;28;101040;-76
2023/01/31 08:43:47;;;;;;;9.67;2.47;;;;;;;5.72;60.23;100223.38;4968610;28;101142;-76
2023/01/31 08:46:13;;;;;;;6.77;2.33;;;;;;;5.80;60.12;100234.53;4985868;28;96931;-77
2023/01/31 08:48:40;;;;;;;10.27;3.73;;;;;;;5.78;60.09;100218.91;4988660;28;97642;-76
2023/01/31 08:51:07;;;;;;;13.20;2.73;;;;;;;6.00;59.80;100242.06;4990752;28;97993;-78
2023/01/31 08:53:33;;;;;;;14.40;3.03;;;;;;;5.99;60.00;100228.19;4986233;28;100838;-77
2023/01/31 08:56:00;;;;;;;9.23;2.77;;;;;;;6.24;59.91;100232.97;4991746;28;97666;-77
2023/01/31 08:58:26;;;;;;;13.07;2.63;;;;;;;6.33;59.02;100214.53;4987649;28;97173;-79
2023/01/31 09:00:51;;;;;;;12.40;3.10;;;;;;;6.68;58.87;100252.13;4990084;28;97770;-79
2023/01/31 09:03:17;;;;;;;11.53;2.60;;;;;;;6.83;58.50;100241.41;4992269;28;98025;-80
2023/01/31 09:05:42;;;;;;;9.87;2.43;;;;;;;6.89;57.80;100233.44;4963331;28;96972;-78
2023/01/31 09:08:08;;;;;;;14.27;2.83;;;;;;;7.11;57.58;100239.09;4955432;28;97388;-79
2023/01/31 09:10:34;;;;;;;14.65;2.78;;;;;;;7.31;56.76;100262.16;4999097;28;97578;-82
2023/01/31 09:13:00;;;;;;;9.43;2.17;;;;;;;7.41;56.09;100257.59;5013891;28;101451;-81
2023/01/31 09:15:28;;;;;;;12.47;2.50;;;;;;;7.45;55.92;100270.56;4990786;28;97294;-82
2023/01/31 09:17:54;;;;;;;9.02;2.22;;;;;;;7.58;55.63;100273.75;5007106;28;97721;-82
2023/01/31 09:20:19;;;;;;;12.65;2.40;;;;;;;7.76;55.04;100271.63;4984075;28;101051;-82
2023/01/31 09:22:45;;;;;;;11.00;3.10;;;;;;;8.07;54.85;100290.91;4964183;28;97483;-81
2023/01/31 09:25:11;;;;;;;11.40;3.33;;;;;;;8.33;54.03;100286.78;4980078;28;96919;-82
2023/01/31 09:27:37;;;;;;;17.30;3.10;;;;;;;8.53;53.53;100283.69;4961074;28;97581;-81
2023/01/31 09:30:07;;;;;;;7.35;2.35;;;;;;;8.70;53.28;100272.78;4994385;28;101666;-81
2023/01/31 09:32:33;;;;;;;9.45;2.42;;;;;;;8.68;53.09;100282.44;4968872;28;101455;-82
2023/01/31 09:34:59;;;;;;;13.55;2.63;;;;;;;8.55;52.81;100288.00;5005730;28;97001;-81
2023/01/31 09:37:24;;;;;;;12.25;3.08;;;;;;;8.39;53.22;100284.91;4973267;28;96849;-81
2023/01/31 09:39:50;;;;;;;7.47;2.78;;;;;;;8.46;53.26;100279.50;4975979;28;101121;-81
2023/01/31 09:42:27;;;;;;;13.45;3.15;;;;;;;8.78;53.43;100265.56;4971888;28;97749;-81
2023/01/31 09:44:59;;;;;;;8.63;3.10;;;;;;;8.92;53.14;100236.41;4987692;28;96803;-81
2023/01/31 09:47:38;;;;;;;9.50;2.35;;;;;;;9.10;52.89;100271.66;4993787;28;96850;-81
2023/01/31 09:50:08;;;;;;;13.95;4.07;;;;;;;8.90;52.66;100265.25;5007929;28;98033;-80
2023/01/31 09:52:34;;;;;;;10.40;3.08;;;;;;;8.70;52.75;100281.50;4987790;28;101802;-81
2023/01/31 09:55:00;;;;;;;10.02;2.65;;;;;;;8.47;52.94;100276.00;4979407;28;97428;-81
2023/01/31 09:57:40;;;;;;;14.85;3.13;;;;;;;8.32;53.41;100272.88;4992222;28;97386;-81
2023/01/31 10:00:18;;;;;;;9.07;2.28;;;;;;;8.19;54.20;100270.59;4992873;28;101954;-81
2023/01/31 10:03:02;;;;;;;9.90;2.70;;;;;;;8.01;54.07;100267.53;4974210;28;97966;-81
2023/01/31 10:05:46;;;;;;;8.95;2.90;;;;;;;7.89;54.79;100280.91;4965115;28;97268;-81
2023/01/31 10:08:30;;;;;;;11.77;3.72;;;;;;;7.79;55.14;100266.31;5013101;28;97068;-81
2023/01/31 10:10:58;;;;;;;11.93;2.45;;;;;;;7.72;55.32;100269.06;5021589;27;101223;-81
2023/01/31 10:13:30;;;;;;;10.23;2.75;;;;;;;7.68;55.82;100263.97;4990594;28;97652;-81
2023/01/31 10:16:16;;;;;;;14.82;3.67;;;;;;;7.68;55.83;100270.03;4988633;28;97669;-81
2023/01/31 10:18:45;;;;;;;10.57;2.47;;;;;;;7.54;56.03;100248.59;4996040;28;98482;-81
2023/01/31 10:21:17;;;;;;;11.68;2.83;;;;;;;7.58;56.55;100265.06;4987312;28;100827;-81
2023/01/31 10:23:57;;;;;;;10.50;2.80;;;;;;;7.36;56.20;100238.53;4971650;28;101803;-80
2023/01/31 10:26:27;;;;;;;8.43;2.58;;;;;;;7.45;56.75;100254.88;4991563;28;98101;-81
2023/01/31 10:29:04;;;;;;;12.25;2.80;;;;;;;7.43;57.12;100250.59;4985053;28;97627;-81
2023/01/31 10:31:42;;;;;;;8.55;2.03;;;;;;;7.47;56.83;100260.91;4973067;28;101268;-81
2023/01/31 10:34:17;;;;;;;8.02;2.47;;;;;;;7.47;57.15;100252.22;4998619;28;100625;-81
2023/01/31 10:37:01;;;;;;;7.72;2.70;;;;;;;7.47;56.99;100241.78;5012377;28;97537;-80
2023/01/31 10:39:31;;;;;;;12.15;3.17;;;;;;;7.40;57.26;100246.28;4959487;28;97232;-81
2023/01/31 10:42:31;;;;;;;8.52;2.45;;;;;;;7.42;57.58;100252.34;4993268;28;101722;-81
2023/01/31 10:45:22;;;;;;;15.27;3.15;;;;;;;7.37;57.22;100254.19;4988106;28;100781;-81
2023/01/31 10:47:55;;;;;;;9.27;2.55;;;;;;;7.34;57.62;100250.78;5005012;28;97789;-81
2023/01/31 10:50:31;;;;;;;12.32;2.92;;;;;;;7.34;57.90;100238.59;5005628;27;96841;-81
2023/01/31 10:53:17;;;;;;;13.20;3.38;;;;;;;7.32;57.70;100242.97;4972069;28;101625;-81
2023/01/31 10:56:00;;;;;;;14.95;4.00;;;;;;;7.33;58.07;100242.13;5022046;27;97609;-82
2023/01/31 10:58:26;;;;;;;14.10;2.85;;;;;;;7.26;57.79;100217.00;5016719;28;97267;-80
2023/01/31 11:00:52;;;;;;;11.48;2.47;;;;;;;7.42;57.55;100228.00;5025015;27;97367;-81
2023/01/31 11:03:18;;;;;;;9.40;3.00;;;;;;;7.51;57.59;100227.78;5007159;28;101316;-83
2023/01/31 11:05:55;;;;;;;12.13;2.92;;;;;;;7.42;57.52;100205.34;4973974;28;100755;-82
2023/01/31 11:08:43;;;;;;;7.75;2.25;;;;;;;7.55;57.51;100218.09;4984254;28;97679;-81
2023/01/31 11:11:12;;;;;;;11.48;3.67;;;;;;;7.55;57.54;100210.28;5004307;28;97192;-82
2023/01/31 11:13:38;;;;;;;8.77;2.63;;;;;;;7.56;57.37;100211.97;4973585;28;101290;-82
2023/01/31 11:16:11;;;;;;;13.10;2.45;;;;;;;7.47;57.23;100219.13;4975291;28;101347;-84
2023/01/31 11:18:45;;;;;;;8.25;2.42;;;;;;;7.45;57.40;100217.47;4992757;28;96988;-83
2023/01/31 11:21:22;;;;;;;10.18;2.60;;;;;;;7.42;57.21;100209.72;4973271;28;97363;-80
2023/01/31 11:23:47;;;;;;;6.85;2.75;;;;;;;7.39;57.63;100208.03;4987635;28;101211;-81
2023/01/31 11:26:24;;;;;;;10.05;2.50;;;;;;;7.25;57.27;100182.22;5003803;28;101006;-81
2023/01/31 11:28:51;;;;;;;11.48;2.80;;;;;;;7.24;57.33;100174.41;4984881;28;97958;-81
2023/01/31 11:31:20;;;;;;;11.00;2.53;;;;;;;7.26;57.26;100172.63;4956973;28;96844;-81
2023/01/31 11:34:00;;;;;;;12.90;2.80;;;;;;;7.40;56.92;100180.16;5005662;28;101417;-80
2023/01/31 11:36:32;;;;;;;11.98;2.88;;;;;;;7.43;57.61;100185.28;4988445;28;100741;-80
2023/01/31 11:38:58;;;;;;;;;;;;;;;7.40;57.59;100186.22;4997235;28;98186;-81
2023/01/31 11:41:26;;;;;;;8.73;2.10;;;;;;;7.40;57.77;100182.75;4960312;28;97101;-80
2023/01/31 11:44:22;;;;;;;5.55;1.88;;;;;;;7.38;57.87;100177.56;4980919;28;101103;-78
2023/01/31 11:46:56;;;;;;;7.47;2.20;;;;;;;7.32;57.88;100185.53;4978185;28;98094;-78